createdAt,value
2023-02-01T00:00:14.627Z,13.70
2023-02-01T00:03:06.029Z,11.73
2023-02-01T00:05:35.036Z,12.57
2023-02-01T00:08:04.951Z,13.97
2023-02-01T00:10:34.269Z,12.13
2023-02-01T00:13:04.131Z,10.60
2023-02-01T00:15:34.438Z,10.87
2023-02-01T00:18:03.941Z,12.10
2023-02-01T00:20:33.666Z,9.83
2023-02-01T00:23:02.875Z,12.50
2023-02-01T00:25:33.765Z,10.17
2023-02-01T00:28:03.211Z,9.17
2023-02-01T00:30:32.182Z,9.30
2023-02-01T00:33:01.678Z,11.00
2023-02-01T00:35:30.825Z,11.67
2023-02-01T00:38:00.113Z,8.60
2023-02-01T00:40:29.927Z,9.13
2023-02-01T00:42:59.143Z,9.03
2023-02-01T00:45:30.014Z,11.10
2023-02-01T00:47:59.160Z,9.47
2023-02-01T00:50:30.686Z,9.20
2023-02-01T00:53:00.255Z,10.10
2023-02-01T00:55:30.245Z,5.73
2023-02-01T00:57:59.249Z,16.37
2023-02-01T01:00:30.103Z,9.53
2023-02-01T01:02:59.844Z,11.90
2023-02-01T01:05:29.814Z,10.05
2023-02-01T01:07:58.627Z,7.93
2023-02-01T01:10:30.088Z,8.73
2023-02-01T01:12:59.118Z,9.40
2023-02-01T01:15:30.528Z,9.20
2023-02-01T01:17:59.396Z,5.73
2023-02-01T01:20:30.407Z,9.17
2023-02-01T01:22:59.659Z,6.53
2023-02-01T01:25:30.007Z,7.77
2023-02-01T01:27:59.332Z,7.17
2023-02-01T01:30:32.862Z,7.67
2023-02-01T01:33:02.028Z,7.60
2023-02-01T01:35:32.851Z,8.73
2023-02-01T01:38:02.717Z,9.30
2023-02-01T01:40:32.136Z,9.63
2023-02-01T01:43:01.315Z,9.10
2023-02-01T01:45:32.949Z,8.00
2023-02-01T01:48:06.753Z,13.13
2023-02-01T01:50:40.596Z,10.68
2023-02-01T01:53:14.297Z,9.63
2023-02-01T01:55:46.728Z,10.40
2023-02-01T01:58:24.627Z,9.97
2023-02-01T02:00:54.872Z,9.67
2023-02-01T02:03:28.788Z,11.63
2023-02-01T02:06:00.519Z,9.10
2023-02-01T02:08:32.995Z,14.40
2023-02-01T02:11:02.626Z,15.63
2023-02-01T02:13:37.447Z,15.07
2023-02-01T02:16:28.121Z,11.93
2023-02-01T02:19:12.613Z,15.20
2023-02-01T02:22:06.244Z,16.87
2023-02-01T02:24:53.450Z,18.13
2023-02-01T02:27:30.065Z,21.83
2023-02-01T02:30:36.461Z,12.17
2023-02-01T02:33:41.756Z,22.67
2023-02-01T02:36:16.819Z,14.47
2023-02-01T02:38:54.820Z,13.63
2023-02-01T02:41:51.511Z,12.60
2023-02-01T02:44:45.560Z,18.40
2023-02-01T02:47:29.860Z,10.27
2023-02-01T02:50:29.150Z,19.77
2023-02-01T02:53:21.609Z,17.27
2023-02-01T02:55:53.209Z,14.70
2023-02-01T02:58:42.079Z,21.93
2023-02-01T03:01:29.806Z,14.20
2023-02-01T03:04:09.583Z,13.10
2023-02-01T03:06:40.532Z,14.17
2023-02-01T03:09:19.048Z,12.20
2023-02-01T03:12:10.553Z,16.20
2023-02-01T03:14:46.877Z,18.80
2023-02-01T03:17:22.143Z,14.50
2023-02-01T03:19:53.496Z,15.23
2023-02-01T03:22:28.304Z,11.30
2023-02-01T03:25:03.021Z,10.70
2023-02-01T03:30:07.127Z,16.43
2023-02-01T03:32:52.064Z,12.83
2023-02-01T03:35:27.449Z,19.60
2023-02-01T03:38:06.206Z,18.57
2023-02-01T03:40:42.679Z,9.37
2023-02-01T03:43:15.689Z,15.07
2023-02-01T03:45:49.849Z,14.93
2023-02-01T03:48:23.220Z,14.43
2023-02-01T03:50:57.333Z,12.67
2023-02-01T03:53:30.489Z,12.45
2023-02-01T03:55:59.801Z,16.50
2023-02-01T03:58:30.317Z,15.80
2023-02-01T04:01:01.438Z,13.60
2023-02-01T04:03:32.704Z,20.17
2023-02-01T04:06:01.648Z,14.23
2023-02-01T04:08:31.337Z,14.80
2023-02-01T04:11:03.177Z,19.07
2023-02-01T04:13:31.922Z,21.27
2023-02-01T04:16:01.017Z,18.53
2023-02-01T04:18:30.757Z,16.20
2023-02-01T04:20:59.742Z,14.10
2023-02-01T04:23:32.339Z,15.30
2023-02-01T04:26:03.057Z,18.57
2023-02-01T04:28:32.401Z,14.30
2023-02-01T04:31:01.459Z,14.93
2023-02-01T04:33:30.974Z,14.97
2023-02-01T04:36:00.401Z,12.93
2023-02-01T04:38:29.956Z,16.10
2023-02-01T04:40:59.535Z,19.73
2023-02-01T04:43:31.045Z,19.73
2023-02-01T04:46:01.042Z,16.33
2023-02-01T04:48:32.905Z,19.37
2023-02-01T04:51:01.934Z,16.00
2023-02-01T04:53:31.122Z,17.33
2023-02-01T04:56:00.022Z,15.47
2023-02-01T04:58:30.020Z,14.20
2023-02-01T05:01:00.368Z,15.63
2023-02-01T05:03:29.732Z,13.73
2023-02-01T05:05:58.736Z,22.30
2023-02-01T05:08:29.247Z,21.83
2023-02-01T05:10:59.272Z,15.23
2023-02-01T05:13:48.089Z,15.17
2023-02-01T05:16:20.232Z,18.57
2023-02-01T05:18:49.560Z,18.43
2023-02-01T05:21:19.729Z,20.03
2023-02-01T05:24:06.907Z,23.23
2023-02-01T05:26:37.007Z,19.83
2023-02-01T05:29:07.523Z,16.30
2023-02-01T05:31:37.637Z,18.50
2023-02-01T05:34:07.367Z,22.30
2023-02-01T05:36:36.410Z,21.87
2023-02-01T05:39:05.920Z,16.00
2023-02-01T05:41:35.016Z,19.17
2023-02-01T05:44:04.657Z,19.77
2023-02-01T05:46:34.999Z,16.80
2023-02-01T05:49:04.278Z,17.33
2023-02-01T05:51:34.060Z,11.43
2023-02-01T05:54:05.330Z,12.07
2023-02-01T05:56:34.739Z,19.77
2023-02-01T05:59:03.807Z,16.53
2023-02-01T06:01:36.480Z,14.93
2023-02-01T06:04:06.183Z,16.97
2023-02-01T06:06:37.239Z,16.93
2023-02-01T06:09:06.794Z,16.53
2023-02-01T06:11:36.153Z,22.43
2023-02-01T06:14:08.512Z,17.13
2023-02-01T06:16:37.652Z,13.27
2023-02-01T06:19:07.576Z,13.87
2023-02-01T06:21:38.590Z,21.87
2023-02-01T06:24:09.858Z,17.10
2023-02-01T06:26:40.627Z,35.83
2023-02-01T06:29:12.361Z,19.40
2023-02-01T06:31:43.538Z,18.07
2023-02-01T06:34:12.810Z,14.10
2023-02-01T06:36:42.103Z,17.30
2023-02-01T06:39:16.311Z,14.97
2023-02-01T06:41:48.096Z,24.10
2023-02-01T06:44:19.630Z,19.37
2023-02-01T06:46:48.886Z,24.77
2023-02-01T06:49:19.044Z,24.47
2023-02-01T06:51:48.676Z,25.27
2023-02-01T06:54:18.164Z,27.33
2023-02-01T06:56:48.026Z,24.07
2023-02-01T06:59:17.533Z,18.45
2023-02-01T07:01:49.278Z,24.75
2023-02-01T07:04:19.029Z,32.40
2023-02-01T07:06:48.115Z,35.40
2023-02-01T07:09:17.417Z,26.93
2023-02-01T07:11:46.706Z,19.83
2023-02-01T07:14:16.537Z,21.80
2023-02-01T07:16:45.974Z,16.57
2023-02-01T07:19:15.567Z,17.77
2023-02-01T07:21:44.848Z,15.23
2023-02-01T07:24:15.256Z,22.10
2023-02-01T07:26:45.293Z,21.17
2023-02-01T07:29:15.138Z,22.63
2023-02-01T07:31:46.018Z,13.40
2023-02-01T07:34:15.347Z,16.70
2023-02-01T07:36:44.525Z,18.73
2023-02-01T07:39:13.991Z,16.10
2023-02-01T07:41:43.566Z,21.83
2023-02-01T07:44:15.695Z,15.37
2023-02-01T07:46:45.257Z,19.10
2023-02-01T07:49:14.508Z,19.00
2023-02-01T07:51:44.771Z,19.60
2023-02-01T07:54:14.066Z,20.33
2023-02-01T07:56:43.574Z,18.20
2023-02-01T07:59:12.702Z,15.17
2023-02-01T08:01:42.046Z,13.80
2023-02-01T08:04:13.645Z,18.17
2023-02-01T08:06:43.030Z,19.53
2023-02-01T08:09:12.933Z,14.47
2023-02-01T08:11:41.904Z,29.70
2023-02-01T08:14:10.899Z,20.47
2023-02-01T08:16:40.200Z,22.57
2023-02-01T08:19:09.229Z,23.00
2023-02-01T08:21:38.259Z,17.87
2023-02-01T08:24:09.993Z,20.87
2023-02-01T08:26:39.128Z,24.60
2023-02-01T08:29:11.043Z,14.03
2023-02-01T08:31:42.220Z,20.70
2023-02-01T08:34:12.891Z,12.43
2023-02-01T08:36:41.927Z,21.03
2023-02-01T08:39:12.254Z,22.83
2023-02-01T08:41:42.845Z,22.73
2023-02-01T08:44:12.176Z,19.40
2023-02-01T08:46:41.375Z,18.73
2023-02-01T08:49:10.333Z,17.63
2023-02-01T08:51:39.366Z,10.63
2023-02-01T08:54:08.435Z,18.20
2023-02-01T08:56:42.038Z,14.63
2023-02-01T08:59:11.792Z,19.67
2023-02-01T09:01:41.191Z,20.60
2023-02-01T09:04:10.283Z,22.53
2023-02-01T09:06:42.440Z,14.53
2023-02-01T09:09:11.698Z,13.23
2023-02-01T09:11:40.994Z,13.33
2023-02-01T09:14:09.979Z,15.63
2023-02-01T09:16:39.347Z,18.00
2023-02-01T09:19:24.814Z,13.63
2023-02-01T09:21:56.016Z,21.13
2023-02-01T09:24:25.150Z,16.00
2023-02-01T09:26:54.666Z,19.60
2023-02-01T09:29:23.652Z,19.90
2023-02-01T09:32:02.825Z,15.60
2023-02-01T09:34:35.640Z,16.33
2023-02-01T09:37:04.743Z,16.80
2023-02-01T09:39:34.948Z,20.27
2023-02-01T09:42:17.692Z,17.33
2023-02-01T09:45:14.834Z,25.37
2023-02-01T09:47:51.695Z,20.60
2023-02-01T09:50:29.455Z,22.53
2023-02-01T09:53:03.916Z,16.75
2023-02-01T09:55:40.906Z,16.57
2023-02-01T09:58:17.595Z,21.03
2023-02-01T10:00:54.550Z,17.50
2023-02-01T10:03:28.523Z,12.90
2023-02-01T10:06:25.782Z,18.00
2023-02-01T10:09:15.364Z,13.85
2023-02-01T10:11:57.493Z,18.27
2023-02-01T10:14:45.259Z,16.33
2023-02-01T10:17:29.393Z,18.53
2023-02-01T10:20:11.183Z,17.62
2023-02-01T10:23:19.458Z,15.53
2023-02-01T10:25:43.788Z,18.13
2023-02-01T10:28:17.193Z,13.60
2023-02-01T10:30:48.030Z,18.90
2023-02-01T10:33:19.911Z,23.47
2023-02-01T10:35:54.909Z,19.13
2023-02-01T10:38:28.758Z,18.40
2023-02-01T10:41:02.850Z,17.50
2023-02-01T10:43:34.391Z,17.53
2023-02-01T10:46:04.068Z,18.90
2023-02-01T10:48:34.640Z,16.60
2023-02-01T10:51:13.377Z,21.23
2023-02-01T10:53:47.023Z,22.97
2023-02-01T10:56:22.191Z,19.12
2023-02-01T10:58:52.000Z,22.37
2023-02-01T11:01:25.478Z,16.93
2023-02-01T11:03:58.610Z,17.75
2023-02-01T11:06:33.595Z,16.83
2023-02-01T11:09:17.282Z,22.23
2023-02-01T11:11:57.729Z,16.90
2023-02-01T11:14:39.610Z,17.23
2023-02-01T11:17:34.228Z,16.53
2023-02-01T11:20:13.873Z,17.80
2023-02-01T11:22:49.237Z,16.37
2023-02-01T11:25:19.440Z,16.10
2023-02-01T11:27:55.273Z,15.27
2023-02-01T11:30:34.123Z,17.30
2023-02-01T11:33:10.262Z,14.43
2023-02-01T11:35:41.809Z,16.00
2023-02-01T11:38:28.199Z,20.67
2023-02-01T11:41:12.393Z,17.60
2023-02-01T11:43:57.062Z,19.62
2023-02-01T11:46:33.767Z,18.37
2023-02-01T11:49:21.789Z,19.53
2023-02-01T11:52:06.429Z,19.03
2023-02-01T11:57:29.096Z,18.97
2023-02-01T12:00:10.003Z,15.17
2023-02-01T12:03:06.324Z,22.52
2023-02-01T12:05:47.372Z,27.13
2023-02-01T12:08:42.045Z,24.37
2023-02-01T12:11:27.976Z,20.20
2023-02-01T12:14:07.797Z,21.57
2023-02-01T12:16:47.100Z,23.97
2023-02-01T12:19:37.971Z,27.47
2023-02-01T12:22:25.176Z,26.70
2023-02-01T12:25:20.887Z,26.50
2023-02-01T12:28:15.911Z,21.30
2023-02-01T12:31:13.838Z,19.50
2023-02-01T12:33:56.870Z,21.70
2023-02-01T12:36:41.583Z,28.67
2023-02-01T12:41:55.011Z,23.20
2023-02-01T12:44:39.457Z,28.23
2023-02-01T12:49:53.492Z,25.30
2023-02-01T12:52:35.534Z,26.47
2023-02-01T12:55:17.247Z,25.40
2023-02-01T12:57:51.301Z,29.50
2023-02-01T13:00:33.192Z,22.77
2023-02-01T13:03:12.633Z,31.27
2023-02-01T13:05:50.294Z,25.17
2023-02-01T13:08:24.193Z,32.07
2023-02-01T13:10:59.654Z,29.60
2023-02-01T13:13:34.954Z,27.10
2023-02-01T13:16:19.348Z,30.13
2023-02-01T13:18:53.488Z,23.20
2023-02-01T13:21:31.716Z,22.00
2023-02-01T13:24:01.114Z,24.50
2023-02-01T13:26:30.890Z,21.40
2023-02-01T13:29:03.861Z,17.17
2023-02-01T13:31:56.722Z,18.57
2023-02-01T13:34:50.892Z,22.60
2023-02-01T13:37:37.365Z,22.17
2023-02-01T13:40:28.972Z,17.07
2023-02-01T13:43:01.143Z,16.20
2023-02-01T13:45:34.180Z,18.87
2023-02-01T13:48:08.345Z,17.13
2023-02-01T13:50:41.367Z,19.43
2023-02-01T13:53:22.818Z,40.83
2023-02-01T13:55:59.029Z,44.47
2023-02-01T13:58:37.139Z,41.20
2023-02-01T14:01:36.210Z,27.13
2023-02-01T14:04:08.943Z,21.57
2023-02-01T14:06:47.443Z,18.80
2023-02-01T14:09:37.693Z,19.53
2023-02-01T14:12:46.239Z,17.10
2023-02-01T14:15:28.778Z,18.67
2023-02-01T14:17:59.904Z,19.07
2023-02-01T14:20:51.841Z,17.53
2023-02-01T14:23:35.938Z,16.20
2023-02-01T14:26:13.532Z,19.73
2023-02-01T14:28:54.722Z,17.87
2023-02-01T14:31:48.820Z,18.43
2023-02-01T14:34:23.030Z,15.83
2023-02-01T14:36:58.343Z,12.18
2023-02-01T14:39:36.376Z,16.60
2023-02-01T14:42:20.430Z,14.50
2023-02-01T14:44:59.463Z,14.93
2023-02-01T14:47:35.982Z,17.87
2023-02-01T14:50:29.087Z,15.57
2023-02-01T14:53:15.263Z,12.77
2023-02-01T14:55:49.254Z,14.90
2023-02-01T14:58:33.219Z,11.53
2023-02-01T15:01:05.136Z,12.77
2023-02-01T15:03:46.872Z,14.63
2023-02-01T15:06:31.972Z,17.43
2023-02-01T15:09:04.929Z,13.30
2023-02-01T15:11:56.065Z,13.63
2023-02-01T15:14:27.810Z,17.40
2023-02-01T15:16:57.609Z,15.67
2023-02-01T15:19:31.722Z,24.47
2023-02-01T15:22:03.524Z,15.53
2023-02-01T15:24:34.688Z,12.93
2023-02-01T15:27:07.564Z,14.67
2023-02-01T15:29:39.769Z,14.03
2023-02-01T15:32:30.884Z,14.00
2023-02-01T15:35:01.804Z,17.37
2023-02-01T15:37:31.749Z,13.43
2023-02-01T15:40:22.345Z,18.60
2023-02-01T15:42:55.429Z,18.10
2023-02-01T15:45:28.617Z,15.03
2023-02-01T15:48:00.259Z,12.43
2023-02-01T15:50:40.676Z,11.97
2023-02-01T15:53:19.152Z,16.37
2023-02-01T15:55:52.447Z,16.17
2023-02-01T15:58:23.834Z,14.77
2023-02-01T16:00:54.951Z,16.63
2023-02-01T16:03:41.635Z,14.13
2023-02-01T16:06:12.745Z,20.03
2023-02-01T16:08:54.487Z,15.00
2023-02-01T16:11:30.065Z,14.93
2023-02-01T16:14:03.003Z,15.70
2023-02-01T16:16:35.904Z,13.43
2023-02-01T16:19:05.515Z,16.07
2023-02-01T16:21:34.752Z,17.80
2023-02-01T16:24:08.435Z,16.80
2023-02-01T16:26:38.814Z,19.10
2023-02-01T16:29:09.486Z,18.57
2023-02-01T16:31:45.813Z,19.70
2023-02-01T16:34:21.908Z,15.53
2023-02-01T16:36:52.791Z,26.07
2023-02-01T16:39:22.187Z,20.77
2023-02-01T16:41:51.664Z,22.10
2023-02-01T16:44:20.726Z,15.83
2023-02-01T16:46:50.319Z,12.17
2023-02-01T16:49:23.241Z,17.00
2023-02-01T16:51:56.539Z,16.07
2023-02-01T16:54:27.920Z,19.27
2023-02-01T16:56:56.984Z,15.27
2023-02-01T16:59:26.187Z,16.13
2023-02-01T17:01:56.199Z,17.47
2023-02-01T17:04:25.773Z,17.37
2023-02-01T17:06:56.173Z,14.17
2023-02-01T17:09:25.956Z,18.70
2023-02-01T17:11:55.857Z,27.23
2023-02-01T17:14:25.521Z,33.97
2023-02-01T17:16:56.089Z,23.97
2023-02-01T17:19:25.619Z,23.10
2023-02-01T17:21:59.058Z,18.23
2023-02-01T17:24:46.431Z,17.80
2023-02-01T17:27:18.184Z,21.07
2023-02-01T17:29:47.909Z,16.00
2023-02-01T17:32:20.177Z,18.27
2023-02-01T17:34:51.256Z,16.27
2023-02-01T17:37:25.426Z,17.23
2023-02-01T17:40:02.109Z,19.10
2023-02-01T17:42:38.037Z,17.57
2023-02-01T17:45:22.583Z,14.07
2023-02-01T17:47:52.113Z,17.37
2023-02-01T17:50:22.695Z,17.47
2023-02-01T17:52:52.664Z,13.63
2023-02-01T17:55:26.480Z,16.87
2023-02-01T17:57:58.907Z,18.53
2023-02-01T18:00:31.734Z,16.63
2023-02-01T18:03:03.204Z,14.73
2023-02-01T18:05:39.060Z,17.33
2023-02-01T18:08:09.724Z,20.20
2023-02-01T18:10:38.715Z,15.13
2023-02-01T18:13:09.721Z,22.07
2023-02-01T18:15:39.618Z,26.73
2023-02-01T18:18:09.382Z,15.23
2023-02-01T18:20:44.757Z,21.83
2023-02-01T18:23:18.447Z,23.50
2023-02-01T18:25:48.127Z,19.40
2023-02-01T18:28:17.799Z,15.17
2023-02-01T18:30:50.449Z,28.50
2023-02-01T18:33:20.919Z,17.17
2023-02-01T18:35:50.339Z,14.00
2023-02-01T18:38:19.333Z,15.00
2023-02-01T18:40:52.910Z,16.53
2023-02-01T18:43:22.232Z,13.48
2023-02-01T18:45:51.658Z,16.50
2023-02-01T18:48:23.882Z,12.50
2023-02-01T18:50:57.010Z,17.93
2023-02-01T18:53:29.546Z,19.53
2023-02-01T18:55:59.557Z,26.50
2023-02-01T18:58:31.813Z,21.40
2023-02-01T19:01:08.898Z,17.63
2023-02-01T19:03:42.984Z,20.30
2023-02-01T19:06:15.731Z,15.08
2023-02-01T19:08:47.609Z,15.33
2023-02-01T19:11:19.043Z,16.53
2023-02-01T19:13:51.720Z,17.53
2023-02-01T19:16:21.221Z,14.07
2023-02-01T19:18:53.264Z,15.90
2023-02-01T19:21:23.017Z,15.50
2023-02-01T19:23:52.596Z,14.77
2023-02-01T19:26:22.147Z,17.60
2023-02-01T19:28:51.222Z,12.75
2023-02-01T19:31:20.558Z,17.30
2023-02-01T19:33:49.628Z,19.30
2023-02-01T19:36:19.190Z,18.77
2023-02-01T19:38:48.167Z,19.20
2023-02-01T19:41:17.506Z,19.23
2023-02-01T19:43:46.973Z,20.27
2023-02-01T19:46:16.229Z,22.90
2023-02-01T19:48:45.034Z,23.27
2023-02-01T19:51:14.138Z,17.30
2023-02-01T19:53:43.293Z,19.77
2023-02-01T19:56:12.595Z,21.30
2023-02-01T19:58:41.879Z,21.77
2023-02-01T20:01:11.131Z,16.77
2023-02-01T20:03:40.048Z,24.63
2023-02-01T20:06:09.395Z,24.80
2023-02-01T20:08:38.411Z,19.97
2023-02-01T20:11:08.565Z,20.43
2023-02-01T20:13:38.145Z,20.25
2023-02-01T20:16:07.744Z,20.03
2023-02-01T20:18:37.028Z,17.97
2023-02-01T20:21:06.691Z,14.87
2023-02-01T20:23:36.548Z,17.50
2023-02-01T20:26:09.023Z,20.00
2023-02-01T20:28:38.526Z,21.73
2023-02-01T20:31:10.364Z,19.77
2023-02-01T20:33:39.606Z,17.47
2023-02-01T20:36:10.149Z,22.30
2023-02-01T20:38:39.418Z,17.87
2023-02-01T20:41:10.097Z,21.93
2023-02-01T20:43:38.969Z,18.33
2023-02-01T20:46:09.208Z,22.83
2023-02-01T20:48:42.164Z,19.37
2023-02-01T20:51:12.688Z,18.63
2023-02-01T20:53:43.565Z,26.23
2023-02-01T20:56:14.063Z,14.17
2023-02-01T20:58:44.025Z,19.07
2023-02-01T21:01:13.657Z,17.90
2023-02-01T21:03:42.888Z,25.33
2023-02-01T21:06:13.134Z,18.33
2023-02-01T21:08:42.425Z,18.07
2023-02-01T21:11:15.461Z,19.93
2023-02-01T21:13:50.057Z,16.77
2023-02-01T21:18:51.653Z,16.47
2023-02-01T21:21:21.357Z,14.27
2023-02-01T21:23:52.285Z,19.37
2023-02-01T21:26:22.982Z,17.00
2023-02-01T21:28:53.739Z,15.60
2023-02-01T21:31:25.507Z,15.20
2023-02-01T21:33:56.347Z,12.78
2023-02-01T21:36:25.837Z,15.80
2023-02-01T21:39:03.552Z,16.37
2023-02-01T21:41:52.858Z,22.00
2023-02-01T21:44:23.064Z,20.70
2023-02-01T21:46:52.525Z,19.47
2023-02-01T21:49:21.930Z,23.17
2023-02-01T21:51:52.013Z,24.30
2023-02-01T21:54:21.511Z,33.70
2023-02-01T21:56:50.809Z,33.27
2023-02-01T21:59:20.069Z,29.23
2023-02-01T22:01:49.688Z,21.33
2023-02-01T22:04:18.984Z,17.47
2023-02-01T22:06:48.271Z,18.33
2023-02-01T22:09:19.925Z,18.30
2023-02-01T22:11:50.275Z,17.10
2023-02-01T22:14:20.214Z,13.95
2023-02-01T22:16:49.842Z,14.73
2023-02-01T22:19:19.390Z,18.27
2023-02-01T22:21:49.300Z,18.77
2023-02-01T22:24:20.520Z,21.97
2023-02-01T22:26:50.774Z,22.23
2023-02-01T22:29:19.996Z,17.60
2023-02-01T22:31:49.454Z,19.10
2023-02-01T22:34:19.168Z,18.80
2023-02-01T22:36:48.783Z,19.67
2023-02-01T22:39:18.114Z,13.27
2023-02-01T22:41:47.167Z,14.20
2023-02-01T22:44:16.399Z,17.63
2023-02-01T22:46:45.624Z,16.67
2023-02-01T22:49:14.992Z,11.13
2023-02-01T22:51:43.966Z,12.53
2023-02-01T22:54:17.560Z,13.47
2023-02-01T22:56:47.204Z,11.80
2023-02-01T22:59:16.764Z,9.50
2023-02-01T23:01:46.357Z,11.07
2023-02-01T23:04:16.881Z,10.33
2023-02-01T23:06:45.935Z,9.23
2023-02-01T23:09:17.846Z,10.57
2023-02-01T23:11:47.307Z,10.00
2023-02-01T23:14:17.205Z,13.07
2023-02-01T23:16:48.015Z,11.40
2023-02-01T23:19:19.788Z,12.20
2023-02-01T23:21:49.560Z,11.53
2023-02-01T23:24:18.767Z,12.73
2023-02-01T23:26:47.916Z,13.97
2023-02-01T23:29:18.648Z,14.73
2023-02-01T23:31:47.730Z,15.57
2023-02-01T23:34:16.877Z,23.33
2023-02-01T23:36:45.772Z,16.23
2023-02-01T23:39:14.801Z,14.73
2023-02-01T23:41:43.708Z,14.00
2023-02-01T23:44:12.737Z,16.23
2023-02-01T23:46:47.154Z,17.50
2023-02-01T23:49:18.386Z,15.53
2023-02-01T23:51:52.230Z,16.40
2023-02-01T23:54:22.793Z,14.20
2023-02-01T23:56:51.718Z,13.90
2023-02-01T23:59:22.089Z,12.83
